createdAt,value
2019-03-08T00:04:33.793Z,1.03
2019-03-08T00:09:29.745Z,1.43
2019-03-08T00:14:25.722Z,0.87
2019-03-08T00:19:21.630Z,0.70
2019-03-08T00:24:17.538Z,1.97
2019-03-08T00:29:13.446Z,1.37
2019-03-08T00:34:09.354Z,1.37
2019-03-08T00:39:05.308Z,1.30
2019-03-08T00:44:01.410Z,1.37
2019-03-08T00:48:57.624Z,1.10
2019-03-08T00:53:53.539Z,1.77
2019-03-08T00:58:49.446Z,1.03
2019-03-08T01:03:48.317Z,1.53
2019-03-08T01:08:44.225Z,1.37
2019-03-08T01:13:40.135Z,1.37
2019-03-08T01:18:36.346Z,2.10
2019-03-08T01:23:32.253Z,1.20
2019-03-08T01:28:28.265Z,1.70
2019-03-08T01:33:24.343Z,1.23
2019-03-08T01:38:20.256Z,3.40
2019-03-08T01:43:16.166Z,2.47
2019-03-08T01:48:12.136Z,1.47
2019-03-08T01:53:08.046Z,1.80
2019-03-08T01:58:03.964Z,2.53
2019-03-08T02:02:59.871Z,2.37
2019-03-08T02:07:55.882Z,2.37
2019-03-08T02:12:51.791Z,1.80
2019-03-08T02:17:47.699Z,1.90
2019-03-08T02:22:43.703Z,1.90
2019-03-08T02:27:39.611Z,4.17
2019-03-08T02:32:35.522Z,3.03
2019-03-08T02:37:31.935Z,3.30
2019-03-08T02:42:27.852Z,2.97
2019-03-08T02:47:23.784Z,3.57
2019-03-08T02:52:19.892Z,2.97
2019-03-08T02:57:15.797Z,5.83
2019-03-08T03:02:11.830Z,5.00
2019-03-08T03:07:08.144Z,3.30
2019-03-08T03:12:04.056Z,2.03
2019-03-08T03:16:59.961Z,2.87
2019-03-08T03:21:56.066Z,3.20
2019-03-08T03:26:51.976Z,2.53
2019-03-08T03:31:47.895Z,3.83
2019-03-08T03:36:43.808Z,3.63
2019-03-08T03:41:39.718Z,4.00
2019-03-08T03:46:35.629Z,3.83
2019-03-08T03:51:31.535Z,5.50
2019-03-08T03:56:28.086Z,2.93
2019-03-08T04:01:25.896Z,3.87
2019-03-08T04:06:21.809Z,4.67
2019-03-08T04:11:17.742Z,5.17
2019-03-08T04:16:13.650Z,3.50
2019-03-08T04:21:09.664Z,5.57
2019-03-08T04:26:05.574Z,3.87
2019-03-08T04:31:01.503Z,3.00
2019-03-08T04:35:57.411Z,3.40
2019-03-08T04:40:53.411Z,3.03
2019-03-08T04:45:49.525Z,1.50
2019-03-08T04:50:46.142Z,3.20
2019-03-08T04:55:42.486Z,2.40
2019-03-08T05:00:38.380Z,4.33
2019-03-08T05:05:34.394Z,2.90
2019-03-08T05:10:30.501Z,1.80
2019-03-08T05:15:26.418Z,1.27
2019-03-08T05:20:23.157Z,1.90
2019-03-08T05:25:19.264Z,3.33
2019-03-08T05:30:16.071Z,3.20
2019-03-08T05:35:13.994Z,3.57
2019-03-08T05:40:11.615Z,2.90
2019-03-08T05:45:10.146Z,1.93
2019-03-08T05:50:10.393Z,3.90
2019-03-08T05:55:31.027Z,3.47
2019-03-08T06:00:33.865Z,3.40
2019-03-08T06:05:29.651Z,1.80
2019-03-08T06:10:29.846Z,1.90
2019-03-08T06:15:25.880Z,3.70
2019-03-08T06:20:25.374Z,2.50
2019-03-08T06:25:21.399Z,2.57
2019-03-08T06:30:17.334Z,4.43
2019-03-08T06:35:13.441Z,3.43
2019-03-08T06:40:11.270Z,2.80
2019-03-08T06:45:10.798Z,2.90
2019-03-08T06:50:11.264Z,3.40
2019-03-08T06:55:12.928Z,2.93
2019-03-08T07:00:29.565Z,2.73
2019-03-08T07:05:25.523Z,3.43
2019-03-08T07:10:21.549Z,3.27
2019-03-08T07:15:17.481Z,4.30
2019-03-08T07:20:36.003Z,2.87
2019-03-08T07:25:40.254Z,4.73
2019-03-08T07:30:40.868Z,3.20
2019-03-08T07:35:44.302Z,1.87
2019-03-08T07:40:51.296Z,2.00
2019-03-08T07:45:49.372Z,1.40
2019-03-08T07:50:56.703Z,1.30
2019-03-08T07:56:12.814Z,1.20
2019-03-08T08:01:17.232Z,2.33
2019-03-08T08:06:18.051Z,3.83
2019-03-08T08:11:32.438Z,4.20
2019-03-08T08:16:33.277Z,2.40
2019-03-08T08:21:31.104Z,4.77
2019-03-08T08:26:32.394Z,3.80
2019-03-08T08:31:33.001Z,4.77
2019-03-08T08:36:33.360Z,3.60
2019-03-08T08:41:34.065Z,4.60
2019-03-08T08:46:44.298Z,2.03
2019-03-08T08:51:44.940Z,5.00
2019-03-08T08:56:42.781Z,3.60
2019-03-08T09:01:49.830Z,4.00
2019-03-08T09:06:47.815Z,3.77
2019-03-08T09:11:52.179Z,2.77
2019-03-08T09:16:45.399Z,2.20
2019-03-08T09:21:46.468Z,3.00
2019-03-08T09:26:50.395Z,1.47
2019-03-08T09:31:48.221Z,2.23
2019-03-08T09:36:49.070Z,2.40
2019-03-08T09:42:03.304Z,2.10
2019-03-08T09:47:11.384Z,2.50
2019-03-08T09:52:18.660Z,3.17
2019-03-08T09:57:19.865Z,2.27
2019-03-08T10:02:18.056Z,1.70
2019-03-08T10:07:27.358Z,2.03
2019-03-08T10:12:40.016Z,2.77
2019-03-08T10:17:37.938Z,3.20
2019-03-08T10:22:45.043Z,3.63
2019-03-08T10:27:45.980Z,3.10
2019-03-08T10:32:46.595Z,3.10
2019-03-08T10:37:53.666Z,2.57
2019-03-08T10:42:54.513Z,1.77
2019-03-08T10:47:56.297Z,3.83
2019-03-08T10:53:06.313Z,1.97
2019-03-08T10:58:04.364Z,1.33
2019-03-08T11:03:02.198Z,2.47
2019-03-08T11:13:32.738Z,2.13
2019-03-08T11:18:39.579Z,2.10
2019-03-08T11:23:37.410Z,1.37
2019-03-08T11:28:44.135Z,2.23
2019-03-08T11:33:45.445Z,1.10
2019-03-08T11:38:46.108Z,2.47
2019-03-08T11:43:50.142Z,2.13
2019-03-08T11:49:04.948Z,2.57
2019-03-08T11:54:21.175Z,3.73
2019-03-08T11:59:27.739Z,1.77
2019-03-08T12:04:25.549Z,1.87
2019-03-08T12:09:29.461Z,2.50
2019-03-08T12:14:30.303Z,2.23
2019-03-08T12:19:37.408Z,0.60
2019-03-08T12:24:38.004Z,2.30
2019-03-08T12:29:52.939Z,3.00
2019-03-08T12:34:53.527Z,1.80
2019-03-08T12:39:51.374Z,1.27
2019-03-08T12:45:06.336Z,3.30
2019-03-08T12:50:06.263Z,2.13
2019-03-08T12:55:06.098Z,2.40
2019-03-08T13:00:07.013Z,1.63
2019-03-08T13:05:20.244Z,2.37
2019-03-08T13:10:16.151Z,2.10
2019-03-08T13:15:22.404Z,1.03
2019-03-08T13:20:24.644Z,1.97
2019-03-08T13:25:28.532Z,1.60
2019-03-08T13:30:28.421Z,1.03
2019-03-08T13:35:25.425Z,1.30
2019-03-08T13:45:45.514Z,1.47
2019-03-08T13:50:42.626Z,1.00
2019-03-08T13:55:40.950Z,2.90
2019-03-08T14:00:38.319Z,2.77
2019-03-08T14:05:38.534Z,1.13
2019-03-08T14:10:39.279Z,3.03
2019-03-08T14:15:36.345Z,1.93
2019-03-08T14:20:33.564Z,2.07
2019-03-08T14:25:30.606Z,1.97
2019-03-08T14:30:37.649Z,1.20
2019-03-08T14:35:33.634Z,2.40
2019-03-08T14:40:31.467Z,2.30
2019-03-08T14:45:40.522Z,1.70
2019-03-08T14:50:39.643Z,1.80
2019-03-08T14:55:35.675Z,1.50
2019-03-08T15:00:31.624Z,2.10
2019-03-08T15:05:27.551Z,0.77
2019-03-08T15:10:23.499Z,2.03
2019-03-08T15:15:20.123Z,1.40
2019-03-08T15:20:20.276Z,1.10
2019-03-08T15:25:16.761Z,1.10
2019-03-08T15:30:17.464Z,1.60
2019-03-08T15:35:17.491Z,2.10
2019-03-08T15:40:17.069Z,1.17
2019-03-08T15:45:14.123Z,1.37
2019-03-08T15:50:13.346Z,1.80
2019-03-08T15:55:09.375Z,1.17
2019-03-08T16:00:17.922Z,2.10
2019-03-08T16:05:15.543Z,1.57
2019-03-08T16:10:39.534Z,1.40
2019-03-08T16:15:36.111Z,1.53
2019-03-08T16:20:33.022Z,1.50
2019-03-08T16:25:29.189Z,2.07
2019-03-08T16:30:38.749Z,1.70
2019-03-08T16:35:39.492Z,1.40
2019-03-08T16:40:58.689Z,1.83
2019-03-08T16:46:14.979Z,2.30
2019-03-08T16:51:14.357Z,2.60
2019-03-08T16:56:25.105Z,2.30
2019-03-08T17:01:28.787Z,2.57
2019-03-08T17:06:44.529Z,1.97
2019-03-08T17:11:45.403Z,2.40
2019-03-08T17:16:43.221Z,2.63
2019-03-08T17:21:42.729Z,2.27
2019-03-08T17:26:44.369Z,2.30
2019-03-08T17:31:45.166Z,2.83
2019-03-08T17:36:55.553Z,2.70
2019-03-08T17:41:56.739Z,2.80
2019-03-08T17:46:57.969Z,3.23
2019-03-08T17:51:58.816Z,3.13
2019-03-08T17:57:08.994Z,4.40
2019-03-08T18:02:06.812Z,3.87
2019-03-08T18:07:21.543Z,3.00
2019-03-08T18:12:19.378Z,2.87
2019-03-08T18:17:26.231Z,4.50
2019-03-08T18:22:40.738Z,4.37
2019-03-08T18:27:50.691Z,4.23
2019-03-08T18:32:51.271Z,3.67
2019-03-08T18:37:49.166Z,3.90
2019-03-08T18:42:55.850Z,4.57
2019-03-08T18:47:53.826Z,4.90
2019-03-08T18:58:21.305Z,4.60
2019-03-08T19:03:37.605Z,4.93
2019-03-08T19:08:44.519Z,4.77
2019-03-08T19:14:02.200Z,5.23
2019-03-08T19:19:12.874Z,4.93
2019-03-08T19:24:13.869Z,5.70
2019-03-08T19:29:31.347Z,6.17
2019-03-08T19:34:49.401Z,6.87
2019-03-08T19:40:07.254Z,8.43
2019-03-08T19:45:09.450Z,7.93
2019-03-08T19:50:24.787Z,7.70
2019-03-08T19:55:26.410Z,8.43
2019-03-08T20:00:24.731Z,7.77
2019-03-08T20:05:29.491Z,9.07
2019-03-08T20:10:27.852Z,9.37
2019-03-08T20:15:34.669Z,7.97
2019-03-08T20:20:35.303Z,7.80
2019-03-08T20:25:36.183Z,7.20
2019-03-08T20:30:34.092Z,6.40
2019-03-08T20:35:44.175Z,6.40
2019-03-08T20:40:54.260Z,4.37
2019-03-08T20:45:55.170Z,3.90
2019-03-08T20:50:51.178Z,4.37
2019-03-08T20:55:47.117Z,3.73
2019-03-08T21:00:43.278Z,3.43
2019-03-08T21:05:39.215Z,3.50
2019-03-08T21:10:35.462Z,3.87
2019-03-08T21:15:31.387Z,4.13
2019-03-08T21:20:27.532Z,5.70
2019-03-08T21:25:23.452Z,5.33
2019-03-08T21:30:19.897Z,3.90
2019-03-08T21:35:15.923Z,3.10
2019-03-08T21:40:14.948Z,4.30
2019-03-08T21:45:12.987Z,4.10
2019-03-08T21:50:12.813Z,4.53
2019-03-08T21:55:08.831Z,3.90
2019-03-08T22:00:17.356Z,4.73
2019-03-08T22:05:14.508Z,4.90
2019-03-08T22:10:18.920Z,4.27
2019-03-08T22:15:14.840Z,5.70
2019-03-08T22:20:10.944Z,5.30
2019-03-08T22:25:07.400Z,5.23
2019-03-08T22:30:12.865Z,5.47
2019-03-08T22:35:08.881Z,5.70
2019-03-08T22:40:06.833Z,5.23
2019-03-08T22:45:04.853Z,6.23
2019-03-08T22:50:00.779Z,6.20
2019-03-08T22:54:56.709Z,6.10
2019-03-08T22:59:52.704Z,6.17
2019-03-08T23:04:48.629Z,6.03
2019-03-08T23:09:44.599Z,6.03
2019-03-08T23:14:40.527Z,5.87
2019-03-08T23:19:36.453Z,5.47
2019-03-08T23:24:32.694Z,5.03
2019-03-08T23:29:30.538Z,4.50
2019-03-08T23:34:26.449Z,4.47
2019-03-08T23:39:22.362Z,5.43
2019-03-08T23:44:18.287Z,4.40
2019-03-08T23:49:14.220Z,4.23
2019-03-08T23:54:10.159Z,3.37
2019-03-08T23:59:06.048Z,2.57
